Pekin, IL (61554)

7:42 AM CDT on July 07, 2015 (GMT -0500)
Glorianne Acres | | Change Station
CLOSE
Current Station
Personal Weather Station
Location: Pekin, IL
Elevation: 525 ft
Nearby Weather Stations
Active Advisory: Flood Warning

Elev 525 ft 40.53 °N, 89.63 °W | Updated 7 seconds ago

Rain
Rain
64.8 °F
Feels Like 64.8 °F
N
0.0
Wind Variable Wind from NW
Gusts 0.0 mph

Today
High -- | Low -- °F
--% Chance of Precip.
Yesterday
High -- | Low -- °F
Precip. -- in
5:34 AM 8:31 PM
Waning Gibbous, 65% visible
Pressure 29.93 in
Visibility 3.0 miles
Clouds Mostly Cloudy 600 ft
Overcast 1000 ft
Dew Point 64 °F
Humidity 97%
Rainfall 0.38 in
Snow Depth Not available.
UV 0 out of 12
Pollen .60 out of 12
Air Quality Not available.
Flu Activity Not available.
SPECI KPIA 071239Z 01009G16KT 330V040 3SM -RA BR BKN006 OVC010 18/16 A2993 RMK AO2 P0005 T01830161

More Conditions Fewer Conditions

Pressure 29.93 in
Visibility 3.0 miles
Clouds Mostly Cloudy 600 ft
Overcast 1000 ft
Dew Point 64 °F
Humidity 97%
Rainfall 0.38 in
Snow Depth Not available.
UV 0 out of 12
Pollen .60 out of 12
Air Quality Not available.
Flu Activity Not available.
SPECI KPIA 071239Z 01009G16KT 330V040 3SM -RA BR BKN006 OVC010 18/16 A2993 RMK AO2 P0005 T01830161

More Conditions Fewer Conditions

10-Day Weather Forecast

×

Almanac

Astronomy

Jul. 07, 2015 Rise Set
Actual Time
Civil Twilight
Nautical Twilight
Astronomical Twilight
Moon
Length of Visible Light
Length of Day
Tomorrow will be .
, % of the Moon is Illuminated

Today's Extremes

State Highs State Lows

Community

WunderPhotos

Upload Photos

1,835,788 photos uploaded!

WunderBlogs® & News

Nearby

Air Quality

  Air Quality AQ Index Pollutant
Not available.

Snow Depth

Station Depth Elevation

Earthquake Activity

City Distance Mag. Time & Date
Minimum magnitude displayed is 2.5.

Coastal Water Temperatures

Place Temperature

Stations

Nearby Weather Stations

Station Location Temp. Windchill Dew Point Humidity Wind Precip. Elev Updated Type
                   
Flood Warning
Statement as of 8:35 PM CDT on July 06, 2015

The Flood Warning continues for
the Illinois River near Peoria.
* Until further notice.
* At 745 PM Monday the stage was 24.3 feet.
* Flood stage is 18.0 feet.
* Moderate flooding is occurring and moderate flooding is forecast.
* Forecast... the river will continue to fall to a stage of 23.3 feet
by Wednesday morning.
* Impact... at 24.4 feet... wabco levee overtops.



                  Fld observed forecast 6am
location stg stg day time Tue Wed Thu

Illinois River
Peoria 18 24.3 Mon 8 PM 24.0 23.3 22.6



Lat... Lon 4093 8952 4093 8941 4062 8957 4047 8980
      4053 8988 4068 8965